WALR/TRK METAR and TAF weather

Enter ICAO airport designator
Station Type Date Time Source
WALR METAR 2014/02/06 02:00 UTC NOAA

WALR 060200Z 26005KT 9000 BKN015 29/23 Q1010


Station Type Date Time Source
WALR Decoded METAR 2014/02/06 02:00 UTC NOAA

Station name not available
Feb 05, 2014 - 09:00 PM EST / 2014.02.06 0200 UTC
Wind: from the W (260 degrees) at 6 MPH (5 KT):0
Visibility: 5 mile(s):0
Sky conditions: mostly cloudy
Temperature: 84 F (29 C)
Dew Point: 73 F (23 C)
Relative Humidity: 70%
Pressure (altimeter): 29.83 in. Hg (1010 hPa)
ob: WALR 060200Z 26005KT 9000 BKN015 29/23 Q1010
cycle: 2

Station Type Date Time Source
WALR TAF 2015/03/06 06:00 UTC NOAA

TAF WALR 060500Z 0606/0706 17007KT 9000 SCT015
BECMG 0610/0611 15005KT 8000
TEMPO 0614/0616 34005KT 6000 RA BKN015
BECMG 0617/0618 00000KT 8000 SCT015
BECMG 0700/0701 32004KT 9000 FEW015


Example: see airport list